sensor_id;sensor_type;location;lat;lon;timestamp;pressure;altitude;pressure_sealevel;temperature;humidity
23253;BME280;11795;47.054;15.408;2023-02-04T00:00:01;97370;;;7.7;69.8
23253;BME280;11795;47.054;15.408;2023-02-04T00:02:00;97380;;;7.5;70.1
23253;BME280;11795;47.054;15.408;2023-02-04T00:04:00;97370;;;7.7;69.6
23253;BME280;11795;47.054;15.408;2023-02-04T00:06:00;97390;;;7.5;70.0
23253;BME280;11795;47.054;15.408;2023-02-04T00:08:00;97380;;;7.5;70.1
23253;BME280;11795;47.054;15.408;2023-02-04T00:10:00;97380;;;7.6;69.8
23253;BME280;11795;47.054;15.408;2023-02-04T00:12:00;97380;;;7.4;70.3
23253;BME280;11795;47.054;15.408;2023-02-04T00:14:00;97360;;;7.5;70.6
23253;BME280;11795;47.054;15.408;2023-02-04T00:16:00;97370;;;7.3;71.3
23253;BME280;11795;47.054;15.408;2023-02-04T00:18:00;97370;;;7.3;71.6
23253;BME280;11795;47.054;15.408;2023-02-04T00:20:00;97380;;;7.2;72.1
23253;BME280;11795;47.054;15.408;2023-02-04T00:22:00;97380;;;7.1;72.7
23253;BME280;11795;47.054;15.408;2023-02-04T00:24:00;97380;;;7.2;72.7
23253;BME280;11795;47.054;15.408;2023-02-04T00:26:00;97390;;;7.0;73.5
23253;BME280;11795;47.054;15.408;2023-02-04T00:28:00;97370;;;6.9;74.2
23253;BME280;11795;47.054;15.408;2023-02-04T00:30:00;97380;;;6.9;74.0
23253;BME280;11795;47.054;15.408;2023-02-04T00:32:00;97370;;;6.6;75.3
23253;BME280;11795;47.054;15.408;2023-02-04T00:34:00;97380;;;6.8;74.7
23253;BME280;11795;47.054;15.408;2023-02-04T00:36:00;97390;;;6.7;75.1
23253;BME280;11795;47.054;15.408;2023-02-04T00:38:00;97400;;;6.7;75.1
23253;BME280;11795;47.054;15.408;2023-02-04T00:40:00;97400;;;6.6;75.0
23253;BME280;11795;47.054;15.408;2023-02-04T00:42:00;97400;;;6.5;75.5
23253;BME280;11795;47.054;15.408;2023-02-04T00:44:00;97400;;;6.6;74.9
23253;BME280;11795;47.054;15.408;2023-02-04T00:46:00;97410;;;6.5;75.0
23253;BME280;11795;47.054;15.408;2023-02-04T00:48:00;97400;;;6.4;75.4
23253;BME280;11795;47.054;15.408;2023-02-04T00:50:00;97410;;;6.4;74.9
23253;BME280;11795;47.054;15.408;2023-02-04T00:52:01;97400;;;6.5;74.0
23253;BME280;11795;47.054;15.408;2023-02-04T00:54:00;97400;;;6.6;72.8
23253;BME280;11795;47.054;15.408;2023-02-04T00:56:00;97390;;;6.5;72.3
23253;BME280;11795;47.054;15.408;2023-02-04T00:58:00;97390;;;6.6;71.8
23253;BME280;11795;47.054;15.408;2023-02-04T01:00:00;97400;;;6.7;70.7
23253;BME280;11795;47.054;15.408;2023-02-04T01:02:00;97400;;;6.6;70.2
23253;BME280;11795;47.054;15.408;2023-02-04T01:04:00;97390;;;6.8;68.1
23253;BME280;11795;47.054;15.408;2023-02-04T01:06:00;97400;;;6.7;67.6
23253;BME280;11795;47.054;15.408;2023-02-04T01:08:00;97390;;;6.8;65.5
23253;BME280;11795;47.054;15.408;2023-02-04T01:10:00;97390;;;7.0;63.2
23253;BME280;11795;47.054;15.408;2023-02-04T01:12:00;97390;;;6.9;63.7
23253;BME280;11795;47.054;15.408;2023-02-04T01:14:00;97380;;;7.0;63.7
23253;BME280;11795;47.054;15.408;2023-02-04T01:16:00;97390;;;6.9;64.0
23253;BME280;11795;47.054;15.408;2023-02-04T01:18:00;97400;;;6.9;63.9
23253;BME280;11795;47.054;15.408;2023-02-04T01:20:00;97390;;;7.0;62.9
23253;BME280;11795;47.054;15.408;2023-02-04T01:22:00;97400;;;6.9;63.2
23253;BME280;11795;47.054;15.408;2023-02-04T01:24:00;97390;;;7.1;62.7
23253;BME280;11795;47.054;15.408;2023-02-04T01:26:00;97390;;;7.0;63.0
23253;BME280;11795;47.054;15.408;2023-02-04T01:28:00;97400;;;6.9;63.0
23253;BME280;11795;47.054;15.408;2023-02-04T01:30:00;97410;;;7.0;62.8
23253;BME280;11795;47.054;15.408;2023-02-04T01:32:00;97400;;;6.9;62.8
23253;BME280;11795;47.054;15.408;2023-02-04T01:34:00;97400;;;7.0;62.6
23253;BME280;11795;47.054;15.408;2023-02-04T01:36:00;97380;;;6.9;63.1
23253;BME280;11795;47.054;15.408;2023-02-04T01:38:00;97370;;;6.9;63.2
23253;BME280;11795;47.054;15.408;2023-02-04T01:40:00;97370;;;7.0;62.8
23253;BME280;11795;47.054;15.408;2023-02-04T01:42:00;97380;;;6.9;63.1
23253;BME280;11795;47.054;15.408;2023-02-04T01:44:00;97380;;;7.0;62.9
23253;BME280;11795;47.054;15.408;2023-02-04T01:46:01;97390;;;6.8;63.4
23253;BME280;11795;47.054;15.408;2023-02-04T01:48:01;97400;;;6.9;63.1
23253;BME280;11795;47.054;15.408;2023-02-04T01:50:01;97400;;;6.9;62.8
23253;BME280;11795;47.054;15.408;2023-02-04T01:52:01;97400;;;6.8;63.4
23253;BME280;11795;47.054;15.408;2023-02-04T01:54:00;97380;;;6.8;63.2
23253;BME280;11795;47.054;15.408;2023-02-04T01:56:00;97390;;;6.8;63.2
23253;BME280;11795;47.054;15.408;2023-02-04T01:58:02;97380;;;6.8;63.3
23253;BME280;11795;47.054;15.408;2023-02-04T02:00:00;97370;;;6.8;63.2
23253;BME280;11795;47.054;15.408;2023-02-04T02:02:01;97380;;;6.7;63.3
23253;BME280;11795;47.054;15.408;2023-02-04T02:04:01;97380;;;6.8;63.0
23253;BME280;11795;47.054;15.408;2023-02-04T02:06:00;97380;;;6.8;63.2
23253;BME280;11795;47.054;15.408;2023-02-04T02:08:02;97380;;;6.7;63.3
23253;BME280;11795;47.054;15.408;2023-02-04T02:10:00;97380;;;6.8;63.2
23253;BME280;11795;47.054;15.408;2023-02-04T02:12:01;97370;;;6.8;63.5
23253;BME280;11795;47.054;15.408;2023-02-04T02:14:00;97370;;;6.8;63.3
23253;BME280;11795;47.054;15.408;2023-02-04T02:16:00;97360;;;6.6;63.6
23253;BME280;11795;47.054;15.408;2023-02-04T02:18:00;97360;;;6.6;63.8
23253;BME280;11795;47.054;15.408;2023-02-04T02:20:00;97360;;;6.7;63.7
23253;BME280;11795;47.054;15.408;2023-02-04T02:22:04;97360;;;6.6;63.8
23253;BME280;11795;47.054;15.408;2023-02-04T02:26:00;97350;;;6.9;62.8
23253;BME280;11795;47.054;15.408;2023-02-04T02:28:01;97350;;;6.8;63.1
23253;BME280;11795;47.054;15.408;2023-02-04T02:30:00;97350;;;6.7;63.2
23253;BME280;11795;47.054;15.408;2023-02-04T02:32:00;97350;;;6.8;63.3
23253;BME280;11795;47.054;15.408;2023-02-04T02:34:00;97350;;;6.7;63.2
23253;BME280;11795;47.054;15.408;2023-02-04T02:36:00;97340;;;6.6;63.5
23253;BME280;11795;47.054;15.408;2023-02-04T02:38:00;97360;;;6.8;62.8
23253;BME280;11795;47.054;15.408;2023-02-04T02:40:00;97350;;;6.7;63.1
23253;BME280;11795;47.054;15.408;2023-02-04T02:42:00;97360;;;6.7;63.2
23253;BME280;11795;47.054;15.408;2023-02-04T02:44:00;97350;;;6.8;62.8
23253;BME280;11795;47.054;15.408;2023-02-04T02:46:00;97340;;;6.8;63.0
23253;BME280;11795;47.054;15.408;2023-02-04T02:48:02;97350;;;6.7;63.3
23253;BME280;11795;47.054;15.408;2023-02-04T02:50:00;97350;;;6.8;63.1
23253;BME280;11795;47.054;15.408;2023-02-04T02:52:00;97340;;;6.7;63.4
23253;BME280;11795;47.054;15.408;2023-02-04T02:54:00;97330;;;6.9;62.5
23253;BME280;11795;47.054;15.408;2023-02-04T02:56:04;97340;;;6.8;62.8
23253;BME280;11795;47.054;15.408;2023-02-04T02:58:00;97320;;;6.7;63.1
23253;BME280;11795;47.054;15.408;2023-02-04T03:00:00;97340;;;6.7;63.3
23253;BME280;11795;47.054;15.408;2023-02-04T03:02:01;97330;;;6.7;63.3
23253;BME280;11795;47.054;15.408;2023-02-04T03:04:01;97330;;;6.8;63.0
23253;BME280;11795;47.054;15.408;2023-02-04T03:06:04;97340;;;6.7;62.8
23253;BME280;11795;47.054;15.408;2023-02-04T03:08:00;97330;;;6.7;63.0
23253;BME280;11795;47.054;15.408;2023-02-04T03:10:00;97330;;;6.8;62.7
23253;BME280;11795;47.054;15.408;2023-02-04T03:12:00;97330;;;6.7;62.8
23253;BME280;11795;47.054;15.408;2023-02-04T03:14:01;97330;;;6.8;62.9
23253;BME280;11795;47.054;15.408;2023-02-04T03:16:00;97330;;;6.7;63.3
23253;BME280;11795;47.054;15.408;2023-02-04T03:18:00;97340;;;6.7;62.9
23253;BME280;11795;47.054;15.408;2023-02-04T03:20:01;97340;;;6.8;62.9
23253;BME280;11795;47.054;15.408;2023-02-04T03:22:01;97340;;;6.7;63.1
23253;BME280;11795;47.054;15.408;2023-02-04T03:24:00;97350;;;6.8;62.9
23253;BME280;11795;47.054;15.408;2023-02-04T03:26:00;97350;;;6.7;63.0
23253;BME280;11795;47.054;15.408;2023-02-04T03:28:00;97350;;;6.6;63.3
23253;BME280;11795;47.054;15.408;2023-02-04T03:30:00;97340;;;6.7;63.1
23253;BME280;11795;47.054;15.408;2023-02-04T03:32:00;97350;;;6.6;63.2
23253;BME280;11795;47.054;15.408;2023-02-04T03:34:00;97360;;;6.7;62.7
23253;BME280;11795;47.054;15.408;2023-02-04T03:36:00;97340;;;6.8;62.1
23253;BME280;11795;47.054;15.408;2023-02-04T03:38:00;97340;;;6.8;62.3
23253;BME280;11795;47.054;15.408;2023-02-04T03:40:00;97340;;;6.9;62.1
23253;BME280;11795;47.054;15.408;2023-02-04T03:42:00;97350;;;6.7;62.3
23253;BME280;11795;47.054;15.408;2023-02-04T03:44:00;97350;;;6.8;61.9
23253;BME280;11795;47.054;15.408;2023-02-04T03:46:00;97340;;;6.8;62.0
23253;BME280;11795;47.054;15.408;2023-02-04T03:48:00;97340;;;6.8;61.9
23253;BME280;11795;47.054;15.408;2023-02-04T03:50:00;97330;;;6.8;62.0
23253;BME280;11795;47.054;15.408;2023-02-04T03:52:00;97340;;;6.9;61.9
23253;BME280;11795;47.054;15.408;2023-02-04T03:54:00;97330;;;6.8;62.1
23253;BME280;11795;47.054;15.408;2023-02-04T03:56:00;97330;;;6.8;62.4
23253;BME280;11795;47.054;15.408;2023-02-04T03:58:00;97330;;;6.8;61.7
23253;BME280;11795;47.054;15.408;2023-02-04T04:00:00;97350;;;6.9;61.0
23253;BME280;11795;47.054;15.408;2023-02-04T04:02:00;97380;;;6.9;60.8
23253;BME280;11795;47.054;15.408;2023-02-04T04:04:00;97350;;;7.0;60.5
23253;BME280;11795;47.054;15.408;2023-02-04T04:06:00;97370;;;6.9;60.7
23253;BME280;11795;47.054;15.408;2023-02-04T04:08:00;97360;;;6.9;60.8
23253;BME280;11795;47.054;15.408;2023-02-04T04:10:00;97360;;;7.0;60.5
23253;BME280;11795;47.054;15.408;2023-02-04T04:12:01;97370;;;7.0;60.0
23253;BME280;11795;47.054;15.408;2023-02-04T04:14:01;97380;;;7.0;60.2
23253;BME280;11795;47.054;15.408;2023-02-04T04:16:02;97380;;;6.9;61.0
23253;BME280;11795;47.054;15.408;2023-02-04T04:18:01;97390;;;6.9;61.4
23253;BME280;11795;47.054;15.408;2023-02-04T04:20:00;97380;;;6.9;61.4
23253;BME280;11795;47.054;15.408;2023-02-04T04:22:00;97400;;;7.0;60.4
23253;BME280;11795;47.054;15.408;2023-02-04T04:24:00;97400;;;7.0;60.7
23253;BME280;11795;47.054;15.408;2023-02-04T04:26:00;97420;;;6.9;61.1
23253;BME280;11795;47.054;15.408;2023-02-04T04:28:00;97420;;;6.9;61.3
23253;BME280;11795;47.054;15.408;2023-02-04T04:30:00;97420;;;6.9;61.4
23253;BME280;11795;47.054;15.408;2023-02-04T04:32:00;97430;;;6.8;61.8
23253;BME280;11795;47.054;15.408;2023-02-04T04:34:01;97440;;;7.0;61.5
23253;BME280;11795;47.054;15.408;2023-02-04T04:36:00;97450;;;6.8;62.0
23253;BME280;11795;47.054;15.408;2023-02-04T04:38:00;97450;;;6.8;62.5
23253;BME280;11795;47.054;15.408;2023-02-04T04:40:01;97450;;;6.8;62.9
23253;BME280;11795;47.054;15.408;2023-02-04T04:42:00;97440;;;6.8;63.1
23253;BME280;11795;47.054;15.408;2023-02-04T04:44:00;97460;;;6.8;63.3
23253;BME280;11795;47.054;15.408;2023-02-04T04:46:00;97480;;;6.8;63.6
23253;BME280;11795;47.054;15.408;2023-02-04T04:48:00;97490;;;6.8;63.9
23253;BME280;11795;47.054;15.408;2023-02-04T04:50:00;97490;;;6.8;63.9
23253;BME280;11795;47.054;15.408;2023-02-04T04:52:00;97480;;;6.8;64.0
23253;BME280;11795;47.054;15.408;2023-02-04T04:54:00;97480;;;6.8;63.9
23253;BME280;11795;47.054;15.408;2023-02-04T04:56:00;97480;;;6.8;64.0
23253;BME280;11795;47.054;15.408;2023-02-04T04:58:00;97500;;;6.6;64.3
23253;BME280;11795;47.054;15.408;2023-02-04T05:00:00;97500;;;6.8;64.3
23253;BME280;11795;47.054;15.408;2023-02-04T05:02:00;97500;;;6.7;64.8
23253;BME280;11795;47.054;15.408;2023-02-04T05:04:00;97510;;;6.7;65.0
23253;BME280;11795;47.054;15.408;2023-02-04T05:06:00;97530;;;6.6;65.1
23253;BME280;11795;47.054;15.408;2023-02-04T05:08:00;97540;;;6.6;65.5
23253;BME280;11795;47.054;15.408;2023-02-04T05:10:00;97540;;;6.6;65.5
23253;BME280;11795;47.054;15.408;2023-02-04T05:12:00;97540;;;6.5;65.8
23253;BME280;11795;47.054;15.408;2023-02-04T05:14:00;97550;;;6.7;65.5
23253;BME280;11795;47.054;15.408;2023-02-04T05:16:00;97550;;;6.5;65.7
23253;BME280;11795;47.054;15.408;2023-02-04T05:18:00;97550;;;6.5;65.7
23253;BME280;11795;47.054;15.408;2023-02-04T05:20:00;97560;;;6.6;66.0
23253;BME280;11795;47.054;15.408;2023-02-04T05:22:00;97580;;;6.5;66.5
23253;BME280;11795;47.054;15.408;2023-02-04T05:24:00;97590;;;6.6;66.4
23253;BME280;11795;47.054;15.408;2023-02-04T05:26:00;97590;;;6.5;66.5
23253;BME280;11795;47.054;15.408;2023-02-04T05:28:00;97590;;;6.4;67.2
23253;BME280;11795;47.054;15.408;2023-02-04T05:30:00;97590;;;6.5;66.7
23253;BME280;11795;47.054;15.408;2023-02-04T05:32:00;97590;;;6.4;67.1
23253;BME280;11795;47.054;15.408;2023-02-04T05:34:01;97590;;;6.6;67.1
23253;BME280;11795;47.054;15.408;2023-02-04T05:36:00;97600;;;6.4;67.4
23253;BME280;11795;47.054;15.408;2023-02-04T05:38:00;97600;;;6.5;67.4
23253;BME280;11795;47.054;15.408;2023-02-04T05:40:00;97600;;;6.5;66.9
23253;BME280;11795;47.054;15.408;2023-02-04T05:42:00;97590;;;6.4;67.3
23253;BME280;11795;47.054;15.408;2023-02-04T05:44:00;97590;;;6.6;67.4
23253;BME280;11795;47.054;15.408;2023-02-04T05:46:00;97580;;;6.4;67.8
23253;BME280;11795;47.054;15.408;2023-02-04T05:48:00;97590;;;6.3;68.3
23253;BME280;11795;47.054;15.408;2023-02-04T05:50:00;97580;;;6.3;67.7
23253;BME280;11795;47.054;15.408;2023-02-04T05:52:00;97590;;;6.3;66.6
23253;BME280;11795;47.054;15.408;2023-02-04T05:54:00;97580;;;6.4;67.0
23253;BME280;11795;47.054;15.408;2023-02-04T05:56:00;97580;;;6.2;66.9
23253;BME280;11795;47.054;15.408;2023-02-04T05:58:00;97580;;;6.2;67.1
23253;BME280;11795;47.054;15.408;2023-02-04T06:00:00;97590;;;6.2;67.6
23253;BME280;11795;47.054;15.408;2023-02-04T06:02:00;97600;;;6.2;68.0
23253;BME280;11795;47.054;15.408;2023-02-04T06:04:00;97600;;;6.3;67.1
23253;BME280;11795;47.054;15.408;2023-02-04T06:06:00;97590;;;6.1;67.5
23253;BME280;11795;47.054;15.408;2023-02-04T06:08:00;97580;;;6.0;67.9
23253;BME280;11795;47.054;15.408;2023-02-04T06:10:00;97600;;;6.2;67.1
23253;BME280;11795;47.054;15.408;2023-02-04T06:12:00;97590;;;6.1;66.3
23253;BME280;11795;47.054;15.408;2023-02-04T06:14:00;97600;;;6.2;66.4
23253;BME280;11795;47.054;15.408;2023-02-04T06:16:00;97610;;;6.1;66.3
23253;BME280;11795;47.054;15.408;2023-02-04T06:18:00;97620;;;6.0;66.4
23253;BME280;11795;47.054;15.408;2023-02-04T06:20:00;97610;;;6.1;65.1
23253;BME280;11795;47.054;15.408;2023-02-04T06:22:00;97610;;;6.0;65.7
23253;BME280;11795;47.054;15.408;2023-02-04T06:24:00;97620;;;6.1;65.5
23253;BME280;11795;47.054;15.408;2023-02-04T06:26:01;97630;;;6.0;65.7
23253;BME280;11795;47.054;15.408;2023-02-04T06:28:00;97640;;;5.9;66.0
23253;BME280;11795;47.054;15.408;2023-02-04T06:30:00;97640;;;6.0;65.7
23253;BME280;11795;47.054;15.408;2023-02-04T06:32:00;97640;;;5.9;66.0
23253;BME280;11795;47.054;15.408;2023-02-04T06:34:00;97650;;;6.1;65.6
23253;BME280;11795;47.054;15.408;2023-02-04T06:36:00;97670;;;6.0;64.8
23253;BME280;11795;47.054;15.408;2023-02-04T06:38:00;97680;;;6.0;65.0
23253;BME280;11795;47.054;15.408;2023-02-04T06:40:00;97690;;;6.1;64.7
23253;BME280;11795;47.054;15.408;2023-02-04T06:42:00;97700;;;6.0;65.0
23253;BME280;11795;47.054;15.408;2023-02-04T06:44:00;97690;;;6.2;64.8
23253;BME280;11795;47.054;15.408;2023-02-04T06:46:00;97700;;;6.1;64.1
23253;BME280;11795;47.054;15.408;2023-02-04T06:48:00;97710;;;6.0;64.3
23253;BME280;11795;47.054;15.408;2023-02-04T06:50:00;97710;;;6.1;64.2
23253;BME280;11795;47.054;15.408;2023-02-04T06:52:00;97720;;;6.1;64.8
23253;BME280;11795;47.054;15.408;2023-02-04T06:54:00;97730;;;6.2;65.1
23253;BME280;11795;47.054;15.408;2023-02-04T06:56:00;97730;;;6.1;65.4
23253;BME280;11795;47.054;15.408;2023-02-04T06:58:01;97750;;;5.9;65.9
23253;BME280;11795;47.054;15.408;2023-02-04T07:00:00;97760;;;6.0;66.0
23253;BME280;11795;47.054;15.408;2023-02-04T07:02:00;97760;;;6.0;66.4
23253;BME280;11795;47.054;15.408;2023-02-04T07:04:00;97770;;;6.1;67.0
23253;BME280;11795;47.054;15.408;2023-02-04T07:06:00;97790;;;6.0;68.3
23253;BME280;11795;47.054;15.408;2023-02-04T07:08:00;97800;;;5.9;69.1
23253;BME280;11795;47.054;15.408;2023-02-04T07:10:00;97810;;;5.9;69.4
23253;BME280;11795;47.054;15.408;2023-02-04T07:12:00;97810;;;5.8;70.4
23253;BME280;11795;47.054;15.408;2023-02-04T07:14:00;97830;;;5.8;71.4
23253;BME280;11795;47.054;15.408;2023-02-04T07:16:00;97830;;;5.8;71.9
23253;BME280;11795;47.054;15.408;2023-02-04T07:18:00;97850;;;5.7;72.9
23253;BME280;11795;47.054;15.408;2023-02-04T07:20:00;97850;;;5.7;73.3
23253;BME280;11795;47.054;15.408;2023-02-04T07:22:00;97860;;;5.4;74.7
23253;BME280;11795;47.054;15.408;2023-02-04T07:24:00;97860;;;5.3;75.9
23253;BME280;11795;47.054;15.408;2023-02-04T07:26:00;97870;;;5.2;76.2
23253;BME280;11795;47.054;15.408;2023-02-04T07:28:01;97870;;;5.1;77.6
23253;BME280;11795;47.054;15.408;2023-02-04T07:30:00;97880;;;5.2;77.7
23253;BME280;11795;47.054;15.408;2023-02-04T07:32:00;97880;;;5.1;77.9
23253;BME280;11795;47.054;15.408;2023-02-04T07:34:00;97890;;;5.2;77.8
23253;BME280;11795;47.054;15.408;2023-02-04T07:36:00;97900;;;5.0;78.6
23253;BME280;11795;47.054;15.408;2023-02-04T07:38:00;97900;;;5.0;78.2
23253;BME280;11795;47.054;15.408;2023-02-04T07:40:00;97900;;;5.0;77.9
23253;BME280;11795;47.054;15.408;2023-02-04T07:42:00;97900;;;5.0;78.8
23253;BME280;11795;47.054;15.408;2023-02-04T07:44:00;97910;;;5.0;79.0
23253;BME280;11795;47.054;15.408;2023-02-04T07:46:00;97910;;;4.9;79.7
23253;BME280;11795;47.054;15.408;2023-02-04T07:48:00;97900;;;5.0;80.0
23253;BME280;11795;47.054;15.408;2023-02-04T07:50:00;97900;;;5.3;78.9
23253;BME280;11795;47.054;15.408;2023-02-04T07:52:00;97900;;;6.0;75.8
23253;BME280;11795;47.054;15.408;2023-02-04T07:54:00;97900;;;7.5;69.8
23253;BME280;11795;47.054;15.408;2023-02-04T07:56:00;97890;;;9.3;62.4
23253;BME280;11795;47.054;15.408;2023-02-04T07:58:00;97890;;;11.1;58.3
23253;BME280;11795;47.054;15.408;2023-02-04T08:00:00;97900;;;12.1;53.0
23253;BME280;11795;47.054;15.408;2023-02-04T08:02:01;97900;;;11.5;53.5
23253;BME280;11795;47.054;15.408;2023-02-04T08:04:00;97900;;;12.7;51.1
23253;BME280;11795;47.054;15.408;2023-02-04T08:06:00;97900;;;14.0;46.2
23253;BME280;11795;47.054;15.408;2023-02-04T08:08:01;97900;;;14.9;44.5
23253;BME280;11795;47.054;15.408;2023-02-04T08:10:00;97910;;;14.6;43.7
23253;BME280;11795;47.054;15.408;2023-02-04T08:12:00;97920;;;12.9;46.7
23253;BME280;11795;47.054;15.408;2023-02-04T08:14:00;97930;;;13.4;47.1
23253;BME280;11795;47.054;15.408;2023-02-04T08:16:00;97920;;;14.9;43.7
23253;BME280;11795;47.054;15.408;2023-02-04T08:18:00;97940;;;16.1;40.4
23253;BME280;11795;47.054;15.408;2023-02-04T08:20:00;97940;;;17.4;38.1
23253;BME280;11795;47.054;15.408;2023-02-04T08:22:00;97960;;;18.0;36.8
23253;BME280;11795;47.054;15.408;2023-02-04T08:24:00;97960;;;19.0;35.8
23253;BME280;11795;47.054;15.408;2023-02-04T08:26:01;97950;;;19.6;34.0
23253;BME280;11795;47.054;15.408;2023-02-04T08:28:00;97960;;;19.5;33.6
23253;BME280;11795;47.054;15.408;2023-02-04T08:30:00;97960;;;20.2;32.6
23253;BME280;11795;47.054;15.408;2023-02-04T08:32:00;97960;;;19.8;34.0
23253;BME280;11795;47.054;15.408;2023-02-04T08:34:00;97970;;;19.9;33.2
23253;BME280;11795;47.054;15.408;2023-02-04T08:36:00;97970;;;19.8;32.2
23253;BME280;11795;47.054;15.408;2023-02-04T08:38:00;97990;;;19.4;33.0
23253;BME280;11795;47.054;15.408;2023-02-04T08:40:00;97990;;;19.6;33.1
23253;BME280;11795;47.054;15.408;2023-02-04T08:42:00;97980;;;19.2;33.3
23253;BME280;11795;47.054;15.408;2023-02-04T08:44:00;97990;;;19.0;34.3
23253;BME280;11795;47.054;15.408;2023-02-04T08:46:00;97990;;;18.8;33.9
23253;BME280;11795;47.054;15.408;2023-02-04T08:48:00;98000;;;18.6;33.9
23253;BME280;11795;47.054;15.408;2023-02-04T08:50:00;98000;;;18.4;32.3
23253;BME280;11795;47.054;15.408;2023-02-04T08:52:02;98010;;;17.3;32.1
23253;BME280;11795;47.054;15.408;2023-02-04T08:54:00;98010;;;17.0;33.3
23253;BME280;11795;47.054;15.408;2023-02-04T08:56:00;98020;;;16.8;33.4
23253;BME280;11795;47.054;15.408;2023-02-04T08:58:02;98010;;;16.5;34.7
23253;BME280;11795;47.054;15.408;2023-02-04T09:00:00;98010;;;15.9;33.2
23253;BME280;11795;47.054;15.408;2023-02-04T09:02:02;98020;;;14.9;33.5
23253;BME280;11795;47.054;15.408;2023-02-04T09:04:00;98030;;;14.3;35.2
23253;BME280;11795;47.054;15.408;2023-02-04T09:06:00;98030;;;13.9;35.8
23253;BME280;11795;47.054;15.408;2023-02-04T09:08:00;98040;;;13.9;36.2
23253;BME280;11795;47.054;15.408;2023-02-04T09:10:00;98050;;;13.9;37.4
23253;BME280;11795;47.054;15.408;2023-02-04T09:12:01;98050;;;13.5;37.0
23253;BME280;11795;47.054;15.408;2023-02-04T09:14:00;98070;;;13.3;37.9
23253;BME280;11795;47.054;15.408;2023-02-04T09:16:00;98070;;;12.9;37.4
23253;BME280;11795;47.054;15.408;2023-02-04T09:18:10;98080;;;12.0;39.1
23253;BME280;11795;47.054;15.408;2023-02-04T09:20:00;98090;;;12.0;38.9
23253;BME280;11795;47.054;15.408;2023-02-04T09:22:00;98100;;;11.5;40.6
23253;BME280;11795;47.054;15.408;2023-02-04T09:24:00;98090;;;11.6;41.1
23253;BME280;11795;47.054;15.408;2023-02-04T09:26:00;98100;;;11.4;39.6
23253;BME280;11795;47.054;15.408;2023-02-04T09:28:00;98110;;;11.5;41.4
23253;BME280;11795;47.054;15.408;2023-02-04T09:30:00;98120;;;11.8;39.6
23253;BME280;11795;47.054;15.408;2023-02-04T09:32:00;98120;;;11.5;39.6
23253;BME280;11795;47.054;15.408;2023-02-04T09:34:00;98130;;;11.2;40.2
23253;BME280;11795;47.054;15.408;2023-02-04T09:36:00;98130;;;10.4;39.9
23253;BME280;11795;47.054;15.408;2023-02-04T09:38:01;98130;;;10.2;40.5
23253;BME280;11795;47.054;15.408;2023-02-04T09:40:00;98140;;;10.0;40.1
23253;BME280;11795;47.054;15.408;2023-02-04T09:42:00;98140;;;9.9;40.1
23253;BME280;11795;47.054;15.408;2023-02-04T09:44:01;98150;;;9.5;41.3
23253;BME280;11795;47.054;15.408;2023-02-04T09:46:01;98150;;;8.8;40.9
23253;BME280;11795;47.054;15.408;2023-02-04T09:48:03;98160;;;8.7;42.9
23253;BME280;11795;47.054;15.408;2023-02-04T09:50:00;98160;;;8.9;42.2
23253;BME280;11795;47.054;15.408;2023-02-04T09:52:00;98180;;;8.7;43.1
23253;BME280;11795;47.054;15.408;2023-02-04T09:54:04;98190;;;9.1;42.7
23253;BME280;11795;47.054;15.408;2023-02-04T09:56:00;98180;;;9.1;42.0
23253;BME280;11795;47.054;15.408;2023-02-04T09:58:00;98200;;;9.0;42.5
23253;BME280;11795;47.054;15.408;2023-02-04T10:00:00;98200;;;8.7;41.5
23253;BME280;11795;47.054;15.408;2023-02-04T10:02:02;98210;;;8.3;42.6
23253;BME280;11795;47.054;15.408;2023-02-04T10:04:01;98210;;;8.1;43.2
23253;BME280;11795;47.054;15.408;2023-02-04T10:06:00;98220;;;7.9;44.4
23253;BME280;11795;47.054;15.408;2023-02-04T10:08:00;98220;;;7.8;45.0
23253;BME280;11795;47.054;15.408;2023-02-04T10:10:00;98240;;;8.0;44.9
23253;BME280;11795;47.054;15.408;2023-02-04T10:12:00;98240;;;7.7;45.0
23253;BME280;11795;47.054;15.408;2023-02-04T10:14:00;98230;;;7.7;45.6
23253;BME280;11795;47.054;15.408;2023-02-04T10:16:01;98240;;;7.8;46.0
23253;BME280;11795;47.054;15.408;2023-02-04T10:18:03;98250;;;7.7;46.3
23253;BME280;11795;47.054;15.408;2023-02-04T10:20:00;98250;;;7.6;46.7
23253;BME280;11795;47.054;15.408;2023-02-04T10:22:02;98250;;;7.3;47.9
23253;BME280;11795;47.054;15.408;2023-02-04T10:24:03;98270;;;7.2;47.6
23253;BME280;11795;47.054;15.408;2023-02-04T10:26:00;98280;;;7.1;48.3
23253;BME280;11795;47.054;15.408;2023-02-04T10:28:00;98280;;;6.9;49.3
23253;BME280;11795;47.054;15.408;2023-02-04T10:30:01;98280;;;7.0;49.6
23253;BME280;11795;47.054;15.408;2023-02-04T10:32:00;98280;;;6.9;50.3
23253;BME280;11795;47.054;15.408;2023-02-04T10:34:08;98280;;;6.8;50.4
23253;BME280;11795;47.054;15.408;2023-02-04T10:36:00;98290;;;6.8;50.8
23253;BME280;11795;47.054;15.408;2023-02-04T10:38:03;98300;;;6.8;51.5
23253;BME280;11795;47.054;15.408;2023-02-04T10:40:00;98290;;;6.8;50.0
23253;BME280;11795;47.054;15.408;2023-02-04T10:42:00;98290;;;6.5;51.0
23253;BME280;11795;47.054;15.408;2023-02-04T10:44:05;98290;;;6.6;50.6
23253;BME280;11795;47.054;15.408;2023-02-04T10:46:02;98290;;;6.7;49.7
23253;BME280;11795;47.054;15.408;2023-02-04T10:48:00;98270;;;6.7;49.5
23253;BME280;11795;47.054;15.408;2023-02-04T10:50:06;98280;;;6.9;51.5
23253;BME280;11795;47.054;15.408;2023-02-04T10:52:01;98280;;;6.8;51.9
23253;BME280;11795;47.054;15.408;2023-02-04T10:54:11;98270;;;6.6;49.4
23253;BME280;11795;47.054;15.408;2023-02-04T10:56:02;98260;;;6.5;48.7
23253;BME280;11795;47.054;15.408;2023-02-04T10:58:02;98260;;;6.4;49.8
23253;BME280;11795;47.054;15.408;2023-02-04T11:00:03;98280;;;6.2;49.9
23253;BME280;11795;47.054;15.408;2023-02-04T11:02:02;98270;;;6.4;49.9
23253;BME280;11795;47.054;15.408;2023-02-04T11:04:00;98270;;;6.5;49.3
23253;BME280;11795;47.054;15.408;2023-02-04T11:06:00;98280;;;6.8;48.7
23253;BME280;11795;47.054;15.408;2023-02-04T11:08:00;98270;;;6.9;47.6
23253;BME280;11795;47.054;15.408;2023-02-04T11:10:00;98270;;;7.1;46.2
23253;BME280;11795;47.054;15.408;2023-02-04T11:12:00;98260;;;7.1;45.5
23253;BME280;11795;47.054;15.408;2023-02-04T11:14:01;98270;;;7.0;44.9
23253;BME280;11795;47.054;15.408;2023-02-04T11:16:10;98250;;;7.2;43.4
23253;BME280;11795;47.054;15.408;2023-02-04T11:18:02;98280;;;7.2;42.5
23253;BME280;11795;47.054;15.408;2023-02-04T11:20:14;98270;;;7.1;40.8